sensor_id;sensor_type;location;lat;lon;timestamp;P1;durP1;ratioP1;P2;durP2;ratioP2
25435;SDS011;13363;52.772;-3.890;2023-05-19T00:01:57;3.57;;;2.60;;
25435;SDS011;13363;52.772;-3.890;2023-05-19T00:04:30;3.33;;;2.30;;
25435;SDS011;13363;52.772;-3.890;2023-05-19T00:06:57;2.27;;;2.17;;
25435;SDS011;13363;52.772;-3.890;2023-05-19T00:09:24;2.53;;;2.10;;
25435;SDS011;13363;52.772;-3.890;2023-05-19T00:11:50;3.37;;;2.30;;
25435;SDS011;13363;52.772;-3.890;2023-05-19T00:14:16;2.33;;;1.90;;
25435;SDS011;13363;52.772;-3.890;2023-05-19T00:16:42;2.33;;;2.13;;
25435;SDS011;13363;52.772;-3.890;2023-05-19T00:19:09;2.50;;;2.30;;
25435;SDS011;13363;52.772;-3.890;2023-05-19T00:21:36;2.50;;;2.30;;
25435;SDS011;13363;52.772;-3.890;2023-05-19T00:24:03;2.20;;;2.00;;
25435;SDS011;13363;52.772;-3.890;2023-05-19T00:26:29;3.37;;;2.30;;
25435;SDS011;13363;52.772;-3.890;2023-05-19T00:28:55;2.30;;;2.20;;
25435;SDS011;13363;52.772;-3.890;2023-05-19T00:31:21;2.30;;;2.20;;
25435;SDS011;13363;52.772;-3.890;2023-05-19T00:33:47;2.03;;;1.93;;
25435;SDS011;13363;52.772;-3.890;2023-05-19T00:36:12;2.43;;;2.10;;
25435;SDS011;13363;52.772;-3.890;2023-05-19T00:38:38;2.30;;;2.10;;
25435;SDS011;13363;52.772;-3.890;2023-05-19T00:41:04;2.30;;;2.13;;
25435;SDS011;13363;52.772;-3.890;2023-05-19T00:43:31;2.73;;;2.23;;
25435;SDS011;13363;52.772;-3.890;2023-05-19T00:46:00;2.30;;;2.20;;
25435;SDS011;13363;52.772;-3.890;2023-05-19T00:48:27;3.77;;;2.40;;
25435;SDS011;13363;52.772;-3.890;2023-05-19T00:50:54;3.97;;;2.30;;
25435;SDS011;13363;52.772;-3.890;2023-05-19T00:53:26;3.80;;;2.37;;
25435;SDS011;13363;52.772;-3.890;2023-05-19T00:55:53;3.07;;;2.20;;
25435;SDS011;13363;52.772;-3.890;2023-05-19T00:58:19;2.63;;;2.43;;
25435;SDS011;13363;52.772;-3.890;2023-05-19T01:00:45;2.50;;;2.30;;
25435;SDS011;13363;52.772;-3.890;2023-05-19T01:03:12;3.13;;;2.37;;
25435;SDS011;13363;52.772;-3.890;2023-05-19T01:05:42;3.17;;;2.20;;
25435;SDS011;13363;52.772;-3.890;2023-05-19T01:08:08;2.47;;;2.27;;
25435;SDS011;13363;52.772;-3.890;2023-05-19T01:10:34;4.37;;;2.27;;
25435;SDS011;13363;52.772;-3.890;2023-05-19T01:13:01;4.03;;;2.50;;
25435;SDS011;13363;52.772;-3.890;2023-05-19T01:15:28;2.20;;;2.00;;
25435;SDS011;13363;52.772;-3.890;2023-05-19T01:18:04;2.60;;;2.33;;
25435;SDS011;13363;52.772;-3.890;2023-05-19T01:20:38;4.40;;;2.33;;
25435;SDS011;13363;52.772;-3.890;2023-05-19T01:31:18;3.90;;;2.23;;
25435;SDS011;13363;52.772;-3.890;2023-05-19T01:33:48;2.17;;;1.93;;
25435;SDS011;13363;52.772;-3.890;2023-05-19T01:36:15;4.57;;;2.60;;
25435;SDS011;13363;52.772;-3.890;2023-05-19T01:38:43;2.30;;;2.17;;
25435;SDS011;13363;52.772;-3.890;2023-05-19T01:41:10;3.10;;;2.47;;
25435;SDS011;13363;52.772;-3.890;2023-05-19T01:43:37;2.40;;;2.20;;
25435;SDS011;13363;52.772;-3.890;2023-05-19T01:46:04;4.23;;;2.53;;
25435;SDS011;13363;52.772;-3.890;2023-05-19T01:48:30;2.17;;;2.07;;
25435;SDS011;13363;52.772;-3.890;2023-05-19T01:50:57;2.77;;;2.57;;
25435;SDS011;13363;52.772;-3.890;2023-05-19T01:53:24;2.80;;;2.30;;
25435;SDS011;13363;52.772;-3.890;2023-05-19T01:55:51;2.17;;;2.00;;
25435;SDS011;13363;52.772;-3.890;2023-05-19T01:58:20;2.70;;;2.40;;
25435;SDS011;13363;52.772;-3.890;2023-05-19T02:06:29;2.80;;;2.10;;
25435;SDS011;13363;52.772;-3.890;2023-05-19T02:09:24;6.40;;;2.60;;
25435;SDS011;13363;52.772;-3.890;2023-05-19T02:14:36;3.30;;;2.20;;
25435;SDS011;13363;52.772;-3.890;2023-05-19T02:17:19;3.03;;;2.70;;
25435;SDS011;13363;52.772;-3.890;2023-05-19T02:19:47;2.37;;;2.17;;
25435;SDS011;13363;52.772;-3.890;2023-05-19T02:22:13;2.10;;;1.93;;
25435;SDS011;13363;52.772;-3.890;2023-05-19T02:24:39;2.50;;;2.30;;
25435;SDS011;13363;52.772;-3.890;2023-05-19T02:27:05;2.10;;;2.00;;
25435;SDS011;13363;52.772;-3.890;2023-05-19T02:29:31;3.73;;;2.50;;
25435;SDS011;13363;52.772;-3.890;2023-05-19T02:31:57;2.60;;;2.20;;
25435;SDS011;13363;52.772;-3.890;2023-05-19T02:34:24;2.47;;;2.27;;
25435;SDS011;13363;52.772;-3.890;2023-05-19T02:36:50;2.67;;;2.20;;
25435;SDS011;13363;52.772;-3.890;2023-05-19T02:39:16;3.03;;;2.10;;
25435;SDS011;13363;52.772;-3.890;2023-05-19T02:41:43;1.80;;;1.70;;
25435;SDS011;13363;52.772;-3.890;2023-05-19T02:44:08;2.50;;;2.10;;
25435;SDS011;13363;52.772;-3.890;2023-05-19T02:46:34;2.57;;;2.33;;
25435;SDS011;13363;52.772;-3.890;2023-05-19T02:49:00;2.30;;;2.10;;
25435;SDS011;13363;52.772;-3.890;2023-05-19T02:51:26;2.60;;;2.40;;
25435;SDS011;13363;52.772;-3.890;2023-05-19T02:53:52;4.37;;;2.00;;
25435;SDS011;13363;52.772;-3.890;2023-05-19T02:56:17;2.20;;;2.00;;
25435;SDS011;13363;52.772;-3.890;2023-05-19T02:58:43;2.30;;;2.00;;
25435;SDS011;13363;52.772;-3.890;2023-05-19T03:01:09;2.77;;;2.30;;
25435;SDS011;13363;52.772;-3.890;2023-05-19T03:03:35;3.13;;;2.40;;
25435;SDS011;13363;52.772;-3.890;2023-05-19T03:06:01;2.13;;;1.93;;
25435;SDS011;13363;52.772;-3.890;2023-05-19T03:08:27;2.40;;;2.20;;
25435;SDS011;13363;52.772;-3.890;2023-05-19T03:10:53;4.40;;;2.10;;
25435;SDS011;13363;52.772;-3.890;2023-05-19T03:13:19;2.57;;;2.23;;
25435;SDS011;13363;52.772;-3.890;2023-05-19T03:15:44;2.87;;;2.67;;
25435;SDS011;13363;52.772;-3.890;2023-05-19T03:18:11;3.50;;;2.30;;
25435;SDS011;13363;52.772;-3.890;2023-05-19T03:20:37;3.63;;;2.23;;
25435;SDS011;13363;52.772;-3.890;2023-05-19T03:23:03;2.47;;;2.27;;
25435;SDS011;13363;52.772;-3.890;2023-05-19T03:25:29;3.57;;;2.37;;
25435;SDS011;13363;52.772;-3.890;2023-05-19T03:27:55;2.20;;;2.10;;
25435;SDS011;13363;52.772;-3.890;2023-05-19T03:30:21;3.00;;;2.10;;
25435;SDS011;13363;52.772;-3.890;2023-05-19T03:32:46;2.17;;;1.97;;
25435;SDS011;13363;52.772;-3.890;2023-05-19T03:35:12;2.40;;;2.13;;
25435;SDS011;13363;52.772;-3.890;2023-05-19T03:37:38;3.17;;;1.93;;
25435;SDS011;13363;52.772;-3.890;2023-05-19T03:40:04;2.60;;;2.23;;
25435;SDS011;13363;52.772;-3.890;2023-05-19T03:42:31;2.50;;;2.30;;
25435;SDS011;13363;52.772;-3.890;2023-05-19T03:44:57;2.17;;;2.07;;
25435;SDS011;13363;52.772;-3.890;2023-05-19T03:47:22;2.00;;;1.90;;
25435;SDS011;13363;52.772;-3.890;2023-05-19T03:49:48;5.20;;;2.27;;
25435;SDS011;13363;52.772;-3.890;2023-05-19T03:52:14;3.27;;;2.30;;
25435;SDS011;13363;52.772;-3.890;2023-05-19T03:54:41;3.67;;;2.03;;
25435;SDS011;13363;52.772;-3.890;2023-05-19T03:57:07;2.10;;;1.90;;
25435;SDS011;13363;52.772;-3.890;2023-05-19T03:59:35;3.83;;;2.43;;
25435;SDS011;13363;52.772;-3.890;2023-05-19T04:02:01;3.17;;;2.10;;
25435;SDS011;13363;52.772;-3.890;2023-05-19T04:04:27;2.10;;;2.00;;
25435;SDS011;13363;52.772;-3.890;2023-05-19T04:06:53;2.50;;;2.30;;
25435;SDS011;13363;52.772;-3.890;2023-05-19T04:09:20;2.67;;;2.30;;
25435;SDS011;13363;52.772;-3.890;2023-05-19T04:11:48;2.10;;;2.00;;
25435;SDS011;13363;52.772;-3.890;2023-05-19T04:14:14;2.43;;;2.10;;
25435;SDS011;13363;52.772;-3.890;2023-05-19T04:16:40;2.30;;;2.10;;
25435;SDS011;13363;52.772;-3.890;2023-05-19T04:19:06;2.40;;;2.20;;
25435;SDS011;13363;52.772;-3.890;2023-05-19T04:21:32;2.37;;;2.17;;
25435;SDS011;13363;52.772;-3.890;2023-05-19T04:23:57;2.97;;;2.13;;
25435;SDS011;13363;52.772;-3.890;2023-05-19T04:26:24;3.70;;;2.03;;
25435;SDS011;13363;52.772;-3.890;2023-05-19T04:28:51;3.40;;;2.30;;
25435;SDS011;13363;52.772;-3.890;2023-05-19T04:31:18;3.47;;;2.40;;
25435;SDS011;13363;52.772;-3.890;2023-05-19T04:33:45;2.53;;;2.03;;
25435;SDS011;13363;52.772;-3.890;2023-05-19T04:36:14;2.73;;;2.30;;
25435;SDS011;13363;52.772;-3.890;2023-05-19T04:38:44;2.37;;;2.27;;
25435;SDS011;13363;52.772;-3.890;2023-05-19T04:41:10;6.03;;;2.20;;
25435;SDS011;13363;52.772;-3.890;2023-05-19T04:43:36;2.10;;;1.90;;
25435;SDS011;13363;52.772;-3.890;2023-05-19T04:46:08;2.33;;;2.00;;
25435;SDS011;13363;52.772;-3.890;2023-05-19T04:48:37;2.23;;;2.03;;
25435;SDS011;13363;52.772;-3.890;2023-05-19T04:51:05;2.00;;;1.90;;
25435;SDS011;13363;52.772;-3.890;2023-05-19T04:53:31;2.53;;;2.40;;
25435;SDS011;13363;52.772;-3.890;2023-05-19T04:55:57;2.67;;;2.47;;
25435;SDS011;13363;52.772;-3.890;2023-05-19T04:58:26;2.20;;;2.10;;
25435;SDS011;13363;52.772;-3.890;2023-05-19T05:00:52;2.30;;;2.10;;
25435;SDS011;13363;52.772;-3.890;2023-05-19T05:03:24;3.07;;;2.20;;
25435;SDS011;13363;52.772;-3.890;2023-05-19T05:05:50;2.17;;;1.97;;
25435;SDS011;13363;52.772;-3.890;2023-05-19T05:08:16;2.47;;;2.27;;
25435;SDS011;13363;52.772;-3.890;2023-05-19T05:10:50;2.43;;;1.90;;
25435;SDS011;13363;52.772;-3.890;2023-05-19T05:13:19;4.60;;;2.30;;
25435;SDS011;13363;52.772;-3.890;2023-05-19T05:15:46;2.57;;;2.23;;
25435;SDS011;13363;52.772;-3.890;2023-05-19T05:18:13;2.23;;;2.03;;
25435;SDS011;13363;52.772;-3.890;2023-05-19T05:20:43;2.33;;;2.13;;
25435;SDS011;13363;52.772;-3.890;2023-05-19T05:23:10;4.37;;;2.43;;
25435;SDS011;13363;52.772;-3.890;2023-05-19T05:25:40;2.50;;;2.30;;
25435;SDS011;13363;52.772;-3.890;2023-05-19T05:28:07;3.30;;;2.07;;
25435;SDS011;13363;52.772;-3.890;2023-05-19T05:30:33;2.10;;;2.00;;
25435;SDS011;13363;52.772;-3.890;2023-05-19T05:33:00;2.47;;;2.27;;
25435;SDS011;13363;52.772;-3.890;2023-05-19T05:35:26;3.83;;;2.20;;
25435;SDS011;13363;52.772;-3.890;2023-05-19T05:37:52;2.07;;;1.97;;
25435;SDS011;13363;52.772;-3.890;2023-05-19T05:40:18;2.60;;;2.40;;
25435;SDS011;13363;52.772;-3.890;2023-05-19T05:42:44;3.33;;;2.07;;
25435;SDS011;13363;52.772;-3.890;2023-05-19T05:45:10;1.83;;;1.70;;
25435;SDS011;13363;52.772;-3.890;2023-05-19T05:47:36;2.73;;;2.33;;
25435;SDS011;13363;52.772;-3.890;2023-05-19T05:50:07;2.10;;;2.00;;
25435;SDS011;13363;52.772;-3.890;2023-05-19T05:52:33;2.53;;;2.33;;
25435;SDS011;13363;52.772;-3.890;2023-05-19T05:55:01;2.73;;;2.10;;
25435;SDS011;13363;52.772;-3.890;2023-05-19T05:57:28;2.40;;;2.30;;
25435;SDS011;13363;52.772;-3.890;2023-05-19T05:59:55;2.67;;;2.10;;
25435;SDS011;13363;52.772;-3.890;2023-05-19T06:02:21;1.83;;;1.73;;
25435;SDS011;13363;52.772;-3.890;2023-05-19T06:04:47;2.07;;;1.97;;
25435;SDS011;13363;52.772;-3.890;2023-05-19T06:07:13;2.27;;;2.17;;
25435;SDS011;13363;52.772;-3.890;2023-05-19T06:09:38;2.47;;;2.30;;
25435;SDS011;13363;52.772;-3.890;2023-05-19T06:12:04;3.77;;;2.17;;
25435;SDS011;13363;52.772;-3.890;2023-05-19T06:14:30;3.57;;;2.13;;
25435;SDS011;13363;52.772;-3.890;2023-05-19T06:16:56;2.43;;;2.20;;
25435;SDS011;13363;52.772;-3.890;2023-05-19T06:19:22;2.40;;;2.03;;
25435;SDS011;13363;52.772;-3.890;2023-05-19T06:21:49;5.03;;;2.03;;
25435;SDS011;13363;52.772;-3.890;2023-05-19T06:24:15;2.60;;;2.13;;
25435;SDS011;13363;52.772;-3.890;2023-05-19T06:26:41;2.07;;;1.97;;
25435;SDS011;13363;52.772;-3.890;2023-05-19T06:29:10;2.13;;;1.93;;
25435;SDS011;13363;52.772;-3.890;2023-05-19T06:31:36;3.17;;;2.10;;
25435;SDS011;13363;52.772;-3.890;2023-05-19T06:34:02;2.17;;;2.07;;
25435;SDS011;13363;52.772;-3.890;2023-05-19T06:36:27;3.17;;;2.43;;
25435;SDS011;13363;52.772;-3.890;2023-05-19T06:38:53;5.40;;;2.47;;
25435;SDS011;13363;52.772;-3.890;2023-05-19T06:41:20;2.30;;;2.10;;
25435;SDS011;13363;52.772;-3.890;2023-05-19T06:43:46;2.30;;;2.10;;
25435;SDS011;13363;52.772;-3.890;2023-05-19T06:46:12;2.90;;;1.80;;
25435;SDS011;13363;52.772;-3.890;2023-05-19T06:48:38;3.13;;;2.10;;
25435;SDS011;13363;52.772;-3.890;2023-05-19T06:51:03;2.00;;;1.90;;
25435;SDS011;13363;52.772;-3.890;2023-05-19T06:53:29;2.33;;;2.10;;
25435;SDS011;13363;52.772;-3.890;2023-05-19T06:55:55;2.80;;;2.20;;
25435;SDS011;13363;52.772;-3.890;2023-05-19T06:58:21;2.47;;;2.27;;
25435;SDS011;13363;52.772;-3.890;2023-05-19T07:00:47;2.43;;;2.23;;
25435;SDS011;13363;52.772;-3.890;2023-05-19T07:03:13;2.10;;;2.00;;
25435;SDS011;13363;52.772;-3.890;2023-05-19T07:05:38;3.33;;;2.07;;
25435;SDS011;13363;52.772;-3.890;2023-05-19T07:08:05;2.17;;;1.97;;
25435;SDS011;13363;52.772;-3.890;2023-05-19T07:10:32;2.20;;;2.10;;
25435;SDS011;13363;52.772;-3.890;2023-05-19T07:12:58;1.97;;;1.83;;
25435;SDS011;13363;52.772;-3.890;2023-05-19T07:15:24;2.43;;;1.90;;
25435;SDS011;13363;52.772;-3.890;2023-05-19T07:17:50;3.83;;;2.53;;
25435;SDS011;13363;52.772;-3.890;2023-05-19T07:20:16;1.93;;;1.60;;
25435;SDS011;13363;52.772;-3.890;2023-05-19T07:22:41;2.27;;;2.03;;
25435;SDS011;13363;52.772;-3.890;2023-05-19T07:25:10;1.70;;;1.60;;
25435;SDS011;13363;52.772;-3.890;2023-05-19T07:27:36;4.17;;;2.20;;
25435;SDS011;13363;52.772;-3.890;2023-05-19T07:30:02;1.90;;;1.80;;
25435;SDS011;13363;52.772;-3.890;2023-05-19T07:32:28;2.47;;;2.07;;
25435;SDS011;13363;52.772;-3.890;2023-05-19T07:34:54;2.33;;;2.03;;
25435;SDS011;13363;52.772;-3.890;2023-05-19T07:37:20;2.10;;;1.90;;
25435;SDS011;13363;52.772;-3.890;2023-05-19T07:39:46;2.50;;;2.07;;
25435;SDS011;13363;52.772;-3.890;2023-05-19T07:42:11;2.70;;;1.80;;
25435;SDS011;13363;52.772;-3.890;2023-05-19T07:44:37;2.73;;;1.83;;
25435;SDS011;13363;52.772;-3.890;2023-05-19T07:47:03;1.87;;;1.73;;
25435;SDS011;13363;52.772;-3.890;2023-05-19T07:49:30;2.10;;;1.90;;
25435;SDS011;13363;52.772;-3.890;2023-05-19T07:51:55;2.43;;;2.23;;
25435;SDS011;13363;52.772;-3.890;2023-05-19T07:54:21;1.60;;;1.50;;
25435;SDS011;13363;52.772;-3.890;2023-05-19T07:56:47;2.30;;;2.00;;
25435;SDS011;13363;52.772;-3.890;2023-05-19T07:59:13;1.83;;;1.73;;
25435;SDS011;13363;52.772;-3.890;2023-05-19T08:01:40;2.20;;;1.97;;
25435;SDS011;13363;52.772;-3.890;2023-05-19T08:04:06;2.13;;;2.03;;
25435;SDS011;13363;52.772;-3.890;2023-05-19T08:06:32;2.77;;;2.03;;
25435;SDS011;13363;52.772;-3.890;2023-05-19T08:08:59;3.93;;;1.70;;
25435;SDS011;13363;52.772;-3.890;2023-05-19T08:11:25;2.80;;;1.90;;
25435;SDS011;13363;52.772;-3.890;2023-05-19T08:13:51;3.10;;;2.10;;
25435;SDS011;13363;52.772;-3.890;2023-05-19T08:16:17;2.53;;;2.17;;
25435;SDS011;13363;52.772;-3.890;2023-05-19T08:18:42;3.93;;;2.27;;
25435;SDS011;13363;52.772;-3.890;2023-05-19T08:21:08;3.03;;;1.90;;
25435;SDS011;13363;52.772;-3.890;2023-05-19T08:23:34;2.23;;;2.03;;
25435;SDS011;13363;52.772;-3.890;2023-05-19T08:26:01;4.00;;;2.33;;
25435;SDS011;13363;52.772;-3.890;2023-05-19T08:28:27;2.83;;;1.90;;
25435;SDS011;13363;52.772;-3.890;2023-05-19T08:30:53;2.30;;;2.10;;
25435;SDS011;13363;52.772;-3.890;2023-05-19T08:33:19;3.07;;;2.07;;
25435;SDS011;13363;52.772;-3.890;2023-05-19T08:35:45;3.93;;;1.97;;
25435;SDS011;13363;52.772;-3.890;2023-05-19T08:38:11;3.33;;;1.67;;
25435;SDS011;13363;52.772;-3.890;2023-05-19T08:40:40;2.10;;;2.00;;
25435;SDS011;13363;52.772;-3.890;2023-05-19T08:43:06;2.77;;;2.13;;
25435;SDS011;13363;52.772;-3.890;2023-05-19T08:45:32;1.97;;;1.87;;
25435;SDS011;13363;52.772;-3.890;2023-05-19T08:47:58;4.23;;;1.97;;
25435;SDS011;13363;52.772;-3.890;2023-05-19T08:50:28;3.83;;;2.20;;
25435;SDS011;13363;52.772;-3.890;2023-05-19T08:53:00;2.23;;;2.03;;
25435;SDS011;13363;52.772;-3.890;2023-05-19T08:56:00;4.50;;;2.57;;
25435;SDS011;13363;52.772;-3.890;2023-05-19T08:58:38;3.27;;;2.50;;
25435;SDS011;13363;52.772;-3.890;2023-05-19T09:01:06;2.63;;;2.43;;
25435;SDS011;13363;52.772;-3.890;2023-05-19T09:03:33;4.37;;;3.20;;
25435;SDS011;13363;52.772;-3.890;2023-05-19T09:06:03;3.90;;;2.37;;
25435;SDS011;13363;52.772;-3.890;2023-05-19T09:08:31;4.63;;;2.73;;
25435;SDS011;13363;52.772;-3.890;2023-05-19T09:10:57;3.33;;;2.33;;
25435;SDS011;13363;52.772;-3.890;2023-05-19T09:13:23;9.03;;;2.53;;
25435;SDS011;13363;52.772;-3.890;2023-05-19T09:15:49;3.90;;;2.70;;
25435;SDS011;13363;52.772;-3.890;2023-05-19T09:18:17;10.40;;;2.73;;
25435;SDS011;13363;52.772;-3.890;2023-05-19T09:20:43;4.53;;;2.40;;
25435;SDS011;13363;52.772;-3.890;2023-05-19T09:23:14;2.90;;;2.43;;
25435;SDS011;13363;52.772;-3.890;2023-05-19T09:25:51;6.13;;;2.90;;
25435;SDS011;13363;52.772;-3.890;2023-05-19T09:28:24;4.40;;;2.63;;
25435;SDS011;13363;52.772;-3.890;2023-05-19T09:31:01;4.20;;;2.50;;
25435;SDS011;13363;52.772;-3.890;2023-05-19T09:33:28;7.30;;;2.77;;
25435;SDS011;13363;52.772;-3.890;2023-05-19T09:35:56;6.17;;;3.17;;
25435;SDS011;13363;52.772;-3.890;2023-05-19T09:38:25;8.87;;;3.20;;
25435;SDS011;13363;52.772;-3.890;2023-05-19T09:40:55;11.80;;;3.50;;
25435;SDS011;13363;52.772;-3.890;2023-05-19T09:43:25;12.47;;;3.90;;
25435;SDS011;13363;52.772;-3.890;2023-05-19T09:46:06;12.47;;;4.97;;
25435;SDS011;13363;52.772;-3.890;2023-05-19T09:48:33;10.03;;;4.07;;
25435;SDS011;13363;52.772;-3.890;2023-05-19T09:51:00;8.03;;;3.37;;
25435;SDS011;13363;52.772;-3.890;2023-05-19T09:53:28;12.77;;;4.20;;
25435;SDS011;13363;52.772;-3.890;2023-05-19T09:55:55;6.03;;;3.30;;
25435;SDS011;13363;52.772;-3.890;2023-05-19T09:58:22;5.27;;;3.23;;
25435;SDS011;13363;52.772;-3.890;2023-05-19T10:00:48;7.47;;;2.80;;
25435;SDS011;13363;52.772;-3.890;2023-05-19T10:03:15;4.57;;;2.63;;
25435;SDS011;13363;52.772;-3.890;2023-05-19T10:05:43;9.07;;;3.20;;
25435;SDS011;13363;52.772;-3.890;2023-05-19T10:08:09;7.10;;;3.03;;
25435;SDS011;13363;52.772;-3.890;2023-05-19T10:10:36;8.20;;;2.97;;
25435;SDS011;13363;52.772;-3.890;2023-05-19T10:13:03;11.03;;;3.43;;
25435;SDS011;13363;52.772;-3.890;2023-05-19T10:15:29;6.97;;;2.80;;
25435;SDS011;13363;52.772;-3.890;2023-05-19T10:17:58;9.70;;;3.93;;
25435;SDS011;13363;52.772;-3.890;2023-05-19T10:20:27;9.50;;;3.93;;
25435;SDS011;13363;52.772;-3.890;2023-05-19T10:22:53;9.17;;;3.40;;
25435;SDS011;13363;52.772;-3.890;2023-05-19T10:25:19;10.23;;;4.00;;
25435;SDS011;13363;52.772;-3.890;2023-05-19T10:27:55;7.20;;;3.40;;
25435;SDS011;13363;52.772;-3.890;2023-05-19T10:30:27;12.13;;;3.70;;
25435;SDS011;13363;52.772;-3.890;2023-05-19T10:32:55;8.67;;;3.30;;
25435;SDS011;13363;52.772;-3.890;2023-05-19T10:35:41;7.60;;;4.10;;
25435;SDS011;13363;52.772;-3.890;2023-05-19T10:46:38;11.03;;;3.67;;
25435;SDS011;13363;52.772;-3.890;2023-05-19T10:49:06;12.83;;;3.80;;
25435;SDS011;13363;52.772;-3.890;2023-05-19T10:51:32;10.90;;;4.07;;
25435;SDS011;13363;52.772;-3.890;2023-05-19T10:54:00;10.33;;;3.60;;
25435;SDS011;13363;52.772;-3.890;2023-05-19T10:56:27;8.88;;;3.97;;
25435;SDS011;13363;52.772;-3.890;2023-05-19T10:58:56;10.37;;;4.10;;
25435;SDS011;13363;52.772;-3.890;2023-05-19T11:01:22;10.23;;;3.77;;
25435;SDS011;13363;52.772;-3.890;2023-05-19T11:04:03;11.73;;;3.90;;
25435;SDS011;13363;52.772;-3.890;2023-05-19T11:06:31;13.00;;;4.80;;
25435;SDS011;13363;52.772;-3.890;2023-05-19T11:09:16;13.88;;;4.88;;
25435;SDS011;13363;52.772;-3.890;2023-05-19T11:11:44;11.33;;;4.50;;
25435;SDS011;13363;52.772;-3.890;2023-05-19T11:14:20;9.73;;;4.17;;
25435;SDS011;13363;52.772;-3.890;2023-05-19T11:16:51;12.60;;;4.20;;
25435;SDS011;13363;52.772;-3.890;2023-05-19T11:21:54;11.45;;;5.03;;
25435;SDS011;13363;52.772;-3.890;2023-05-19T11:24:54;11.90;;;4.93;;
25435;SDS011;13363;52.772;-3.890;2023-05-19T11:29:56;14.17;;;4.20;;
25435;SDS011;13363;52.772;-3.890;2023-05-19T11:32:33;10.17;;;3.93;;
25435;SDS011;13363;52.772;-3.890;2023-05-19T11:35:03;13.87;;;4.13;;
25435;SDS011;13363;52.772;-3.890;2023-05-19T11:37:33;12.63;;;4.60;;
25435;SDS011;13363;52.772;-3.890;2023-05-19T11:40:05;9.50;;;3.57;;
25435;SDS011;13363;52.772;-3.890;2023-05-19T11:42:35;9.67;;;3.93;;
25435;SDS011;13363;52.772;-3.890;2023-05-19T11:45:02;10.83;;;4.37;;
25435;SDS011;13363;52.772;-3.890;2023-05-19T11:47:29;10.97;;;4.27;;
25435;SDS011;13363;52.772;-3.890;2023-05-19T11:49:57;6.17;;;3.90;;
25435;SDS011;13363;52.772;-3.890;2023-05-19T11:52:23;12.47;;;3.90;;
25435;SDS011;13363;52.772;-3.890;2023-05-19T11:54:51;7.07;;;3.72;;
25435;SDS011;13363;52.772;-3.890;2023-05-19T11:57:17;8.27;;;3.90;;
25435;SDS011;13363;52.772;-3.890;2023-05-19T11:59:43;7.20;;;3.20;;
25435;SDS011;13363;52.772;-3.890;2023-05-19T12:04:43;11.30;;;3.83;;
25435;SDS011;13363;52.772;-3.890;2023-05-19T12:07:12;7.77;;;2.87;;
25435;SDS011;13363;52.772;-3.890;2023-05-19T12:09:41;5.73;;;3.17;;
25435;SDS011;13363;52.772;-3.890;2023-05-19T12:12:07;6.83;;;3.57;;
25435;SDS011;13363;52.772;-3.890;2023-05-19T12:14:34;10.37;;;3.70;;
25435;SDS011;13363;52.772;-3.890;2023-05-19T12:17:13;6.40;;;3.27;;
25435;SDS011;13363;52.772;-3.890;2023-05-19T12:19:44;10.10;;;3.60;;
25435;SDS011;13363;52.772;-3.890;2023-05-19T12:22:16;9.80;;;3.43;;
25435;SDS011;13363;52.772;-3.890;2023-05-19T12:24:43;8.33;;;3.47;;
25435;SDS011;13363;52.772;-3.890;2023-05-19T12:27:10;8.60;;;3.67;;
25435;SDS011;13363;52.772;-3.890;2023-05-19T12:29:49;15.93;;;3.60;;
25435;SDS011;13363;52.772;-3.890;2023-05-19T12:32:25;5.67;;;2.90;;
25435;SDS011;13363;52.772;-3.890;2023-05-19T12:34:52;11.83;;;3.53;;
25435;SDS011;13363;52.772;-3.890;2023-05-19T12:37:20;8.33;;;3.20;;
25435;SDS011;13363;52.772;-3.890;2023-05-19T12:39:47;6.40;;;3.23;;
25435;SDS011;13363;52.772;-3.890;2023-05-19T12:42:14;10.27;;;3.70;;
25435;SDS011;13363;52.772;-3.890;2023-05-19T12:44:45;6.10;;;3.37;;
25435;SDS011;13363;52.772;-3.890;2023-05-19T12:47:12;8.57;;;3.30;;
25435;SDS011;13363;52.772;-3.890;2023-05-19T12:52:21;9.57;;;3.40;;
25435;SDS011;13363;52.772;-3.890;2023-05-19T12:54:48;10.80;;;3.90;;
25435;SDS011;13363;52.772;-3.890;2023-05-19T12:57:15;8.27;;;3.87;;
25435;SDS011;13363;52.772;-3.890;2023-05-19T12:59:41;7.53;;;3.50;;
25435;SDS011;13363;52.772;-3.890;2023-05-19T13:02:07;12.23;;;3.67;;
25435;SDS011;13363;52.772;-3.890;2023-05-19T13:04:33;8.67;;;3.57;;
25435;SDS011;13363;52.772;-3.890;2023-05-19T13:06:59;9.40;;;3.63;;
25435;SDS011;13363;52.772;-3.890;2023-05-19T13:09:25;8.17;;;4.13;;
25435;SDS011;13363;52.772;-3.890;2023-05-19T13:11:52;6.67;;;3.10;;
25435;SDS011;13363;52.772;-3.890;2023-05-19T13:14:18;10.03;;;4.03;;
25435;SDS011;13363;52.772;-3.890;2023-05-19T13:16:45;9.90;;;3.77;;
25435;SDS011;13363;52.772;-3.890;2023-05-19T13:19:13;8.07;;;3.53;;
25435;SDS011;13363;52.772;-3.890;2023-05-19T13:21:40;7.83;;;3.70;;
25435;SDS011;13363;52.772;-3.890;2023-05-19T13:24:06;4.93;;;3.07;;
25435;SDS011;13363;52.772;-3.890;2023-05-19T13:26:31;8.30;;;4.10;;
25435;SDS011;13363;52.772;-3.890;2023-05-19T13:28:57;7.80;;;3.20;;
25435;SDS011;13363;52.772;-3.890;2023-05-19T13:31:23;11.50;;;3.43;;
25435;SDS011;13363;52.772;-3.890;2023-05-19T13:33:49;3.53;;;2.70;;
25435;SDS011;13363;52.772;-3.890;2023-05-19T13:36:15;11.13;;;4.13;;
25435;SDS011;13363;52.772;-3.890;2023-05-19T13:38:41;5.57;;;3.33;;
25435;SDS011;13363;52.772;-3.890;2023-05-19T13:41:07;6.77;;;3.47;;
25435;SDS011;13363;52.772;-3.890;2023-05-19T13:43:33;8.10;;;4.07;;
25435;SDS011;13363;52.772;-3.890;2023-05-19T13:46:00;6.23;;;3.87;;
25435;SDS011;13363;52.772;-3.890;2023-05-19T13:48:25;7.80;;;3.50;;
25435;SDS011;13363;52.772;-3.890;2023-05-19T13:50:51;8.47;;;3.13;;
25435;SDS011;13363;52.772;-3.890;2023-05-19T13:53:19;5.03;;;3.40;;
25435;SDS011;13363;52.772;-3.890;2023-05-19T13:55:45;8.37;;;4.07;;
25435;SDS011;13363;52.772;-3.890;2023-05-19T13:58:11;5.97;;;3.03;;
25435;SDS011;13363;52.772;-3.890;2023-05-19T14:00:39;8.73;;;3.73;;
25435;SDS011;13363;52.772;-3.890;2023-05-19T14:03:06;7.33;;;3.07;;
25435;SDS011;13363;52.772;-3.890;2023-05-19T14:05:32;9.23;;;3.50;;
25435;SDS011;13363;52.772;-3.890;2023-05-19T14:07:58;7.53;;;3.77;;
25435;SDS011;13363;52.772;-3.890;2023-05-19T14:10:25;12.70;;;3.93;;
25435;SDS011;13363;52.772;-3.890;2023-05-19T14:12:51;9.67;;;4.07;;
25435;SDS011;13363;52.772;-3.890;2023-05-19T14:15:21;10.27;;;3.60;;
25435;SDS011;13363;52.772;-3.890;2023-05-19T14:17:47;10.83;;;4.00;;
25435;SDS011;13363;52.772;-3.890;2023-05-19T14:20:13;10.00;;;4.00;;
25435;SDS011;13363;52.772;-3.890;2023-05-19T14:22:39;6.13;;;3.20;;
25435;SDS011;13363;52.772;-3.890;2023-05-19T14:25:05;6.73;;;3.60;;
25435;SDS011;13363;52.772;-3.890;2023-05-19T14:27:31;6.73;;;3.50;;
25435;SDS011;13363;52.772;-3.890;2023-05-19T14:29:58;6.50;;;3.10;;
25435;SDS011;13363;52.772;-3.890;2023-05-19T14:32:34;7.40;;;3.53;;
25435;SDS011;13363;52.772;-3.890;2023-05-19T14:34:59;7.87;;;3.37;;
25435;SDS011;13363;52.772;-3.890;2023-05-19T14:37:25;7.57;;;3.47;;
25435;SDS011;13363;52.772;-3.890;2023-05-19T14:39:53;5.13;;;2.50;;
25435;SDS011;13363;52.772;-3.890;2023-05-19T14:42:19;9.93;;;3.63;;
25435;SDS011;13363;52.772;-3.890;2023-05-19T14:44:45;6.10;;;3.10;;
25435;SDS011;13363;52.772;-3.890;2023-05-19T14:47:11;7.00;;;3.30;;
25435;SDS011;13363;52.772;-3.890;2023-05-19T14:49:37;10.27;;;4.00;;
25435;SDS011;13363;52.772;-3.890;2023-05-19T14:52:03;7.23;;;3.10;;
25435;SDS011;13363;52.772;-3.890;2023-05-19T14:54:29;5.30;;;2.70;;
25435;SDS011;13363;52.772;-3.890;2023-05-19T14:56:56;5.37;;;3.20;;
25435;SDS011;13363;52.772;-3.890;2023-05-19T14:59:25;5.83;;;3.10;;
25435;SDS011;13363;52.772;-3.890;2023-05-19T15:01:52;6.07;;;3.17;;
25435;SDS011;13363;52.772;-3.890;2023-05-19T15:04:17;8.73;;;3.23;;
25435;SDS011;13363;52.772;-3.890;2023-05-19T15:06:43;7.03;;;3.00;;
25435;SDS011;13363;52.772;-3.890;2023-05-19T15:09:10;6.03;;;3.57;;
25435;SDS011;13363;52.772;-3.890;2023-05-19T15:11:38;7.50;;;3.20;;